sensor_id;sensor_type;location;lat;lon;timestamp;P1;durP1;ratioP1;P2;durP2;ratioP2
9214;SDS011;4642;51.364;6.788;2023-04-15T00:02:16;4.00;;;2.13;;
9214;SDS011;4642;51.364;6.788;2023-04-15T00:04:46;7.57;;;2.10;;
9214;SDS011;4642;51.364;6.788;2023-04-15T00:07:13;5.03;;;2.00;;
9214;SDS011;4642;51.364;6.788;2023-04-15T00:09:39;5.53;;;2.23;;
9214;SDS011;4642;51.364;6.788;2023-04-15T00:12:08;4.37;;;2.33;;
9214;SDS011;4642;51.364;6.788;2023-04-15T00:14:35;5.70;;;2.27;;
9214;SDS011;4642;51.364;6.788;2023-04-15T00:17:01;9.50;;;2.13;;
9214;SDS011;4642;51.364;6.788;2023-04-15T00:19:27;3.97;;;2.40;;
9214;SDS011;4642;51.364;6.788;2023-04-15T00:21:53;2.97;;;2.20;;
9214;SDS011;4642;51.364;6.788;2023-04-15T00:24:19;4.37;;;2.37;;
9214;SDS011;4642;51.364;6.788;2023-04-15T00:26:44;5.13;;;2.70;;
9214;SDS011;4642;51.364;6.788;2023-04-15T00:29:10;4.87;;;2.83;;
9214;SDS011;4642;51.364;6.788;2023-04-15T00:31:36;8.23;;;2.90;;
9214;SDS011;4642;51.364;6.788;2023-04-15T00:34:02;6.43;;;3.23;;
9214;SDS011;4642;51.364;6.788;2023-04-15T00:36:27;5.83;;;2.33;;
9214;SDS011;4642;51.364;6.788;2023-04-15T00:38:53;6.63;;;2.87;;
9214;SDS011;4642;51.364;6.788;2023-04-15T00:41:18;5.50;;;2.80;;
9214;SDS011;4642;51.364;6.788;2023-04-15T00:43:44;9.47;;;3.20;;
9214;SDS011;4642;51.364;6.788;2023-04-15T00:46:12;4.40;;;2.80;;
9214;SDS011;4642;51.364;6.788;2023-04-15T00:48:39;4.00;;;2.73;;
9214;SDS011;4642;51.364;6.788;2023-04-15T00:51:06;4.67;;;3.20;;
9214;SDS011;4642;51.364;6.788;2023-04-15T00:53:32;5.67;;;3.03;;
9214;SDS011;4642;51.364;6.788;2023-04-15T00:55:58;5.83;;;3.77;;
9214;SDS011;4642;51.364;6.788;2023-04-15T00:58:23;5.87;;;2.87;;
9214;SDS011;4642;51.364;6.788;2023-04-15T01:00:49;5.13;;;3.17;;
9214;SDS011;4642;51.364;6.788;2023-04-15T01:03:18;5.37;;;3.00;;
9214;SDS011;4642;51.364;6.788;2023-04-15T01:05:44;9.30;;;2.87;;
9214;SDS011;4642;51.364;6.788;2023-04-15T01:08:10;7.43;;;2.67;;
9214;SDS011;4642;51.364;6.788;2023-04-15T01:10:36;4.57;;;2.83;;
9214;SDS011;4642;51.364;6.788;2023-04-15T01:13:02;5.90;;;3.20;;
9214;SDS011;4642;51.364;6.788;2023-04-15T01:15:27;5.93;;;3.60;;
9214;SDS011;4642;51.364;6.788;2023-04-15T01:17:53;6.37;;;3.10;;
9214;SDS011;4642;51.364;6.788;2023-04-15T01:20:19;6.33;;;3.37;;
9214;SDS011;4642;51.364;6.788;2023-04-15T01:22:44;8.17;;;3.60;;
9214;SDS011;4642;51.364;6.788;2023-04-15T01:25:11;5.93;;;2.57;;
9214;SDS011;4642;51.364;6.788;2023-04-15T01:27:41;7.63;;;3.03;;
9214;SDS011;4642;51.364;6.788;2023-04-15T01:30:07;5.57;;;3.00;;
9214;SDS011;4642;51.364;6.788;2023-04-15T01:32:34;7.27;;;3.20;;
9214;SDS011;4642;51.364;6.788;2023-04-15T01:35:00;7.97;;;3.33;;
9214;SDS011;4642;51.364;6.788;2023-04-15T01:37:26;6.67;;;3.50;;
9214;SDS011;4642;51.364;6.788;2023-04-15T01:39:51;7.47;;;3.70;;
9214;SDS011;4642;51.364;6.788;2023-04-15T01:42:17;6.43;;;2.80;;
9214;SDS011;4642;51.364;6.788;2023-04-15T01:44:42;4.90;;;3.27;;
9214;SDS011;4642;51.364;6.788;2023-04-15T01:47:08;5.43;;;3.73;;
9214;SDS011;4642;51.364;6.788;2023-04-15T01:49:33;6.10;;;3.17;;
9214;SDS011;4642;51.364;6.788;2023-04-15T01:52:00;7.30;;;3.20;;
9214;SDS011;4642;51.364;6.788;2023-04-15T01:54:25;7.33;;;3.33;;
9214;SDS011;4642;51.364;6.788;2023-04-15T01:56:51;8.03;;;3.50;;
9214;SDS011;4642;51.364;6.788;2023-04-15T01:59:17;4.40;;;3.03;;
9214;SDS011;4642;51.364;6.788;2023-04-15T02:01:43;6.57;;;3.33;;
9214;SDS011;4642;51.364;6.788;2023-04-15T02:04:09;10.00;;;3.57;;
9214;SDS011;4642;51.364;6.788;2023-04-15T02:06:40;9.27;;;3.77;;
9214;SDS011;4642;51.364;6.788;2023-04-15T02:09:09;9.03;;;3.80;;
9214;SDS011;4642;51.364;6.788;2023-04-15T02:11:35;8.27;;;4.17;;
9214;SDS011;4642;51.364;6.788;2023-04-15T02:14:03;9.03;;;4.00;;
9214;SDS011;4642;51.364;6.788;2023-04-15T02:16:30;5.97;;;3.70;;
9214;SDS011;4642;51.364;6.788;2023-04-15T02:18:57;7.77;;;3.83;;
9214;SDS011;4642;51.364;6.788;2023-04-15T02:21:24;9.90;;;3.47;;
9214;SDS011;4642;51.364;6.788;2023-04-15T02:23:50;7.63;;;3.77;;
9214;SDS011;4642;51.364;6.788;2023-04-15T02:26:17;5.53;;;4.10;;
9214;SDS011;4642;51.364;6.788;2023-04-15T02:28:43;8.57;;;4.77;;
9214;SDS011;4642;51.364;6.788;2023-04-15T02:31:09;8.33;;;4.00;;
9214;SDS011;4642;51.364;6.788;2023-04-15T02:33:35;5.43;;;3.57;;
9214;SDS011;4642;51.364;6.788;2023-04-15T02:36:01;9.33;;;4.37;;
9214;SDS011;4642;51.364;6.788;2023-04-15T02:38:27;11.07;;;4.77;;
9214;SDS011;4642;51.364;6.788;2023-04-15T02:40:53;7.33;;;4.10;;
9214;SDS011;4642;51.364;6.788;2023-04-15T02:43:18;7.53;;;3.53;;
9214;SDS011;4642;51.364;6.788;2023-04-15T02:45:45;8.83;;;3.97;;
9214;SDS011;4642;51.364;6.788;2023-04-15T02:48:11;11.97;;;4.43;;
9214;SDS011;4642;51.364;6.788;2023-04-15T02:50:36;8.83;;;4.37;;
9214;SDS011;4642;51.364;6.788;2023-04-15T02:53:05;9.87;;;4.43;;
9214;SDS011;4642;51.364;6.788;2023-04-15T02:55:31;7.67;;;4.50;;
9214;SDS011;4642;51.364;6.788;2023-04-15T02:57:57;5.93;;;3.70;;
9214;SDS011;4642;51.364;6.788;2023-04-15T03:00:24;11.77;;;4.90;;
9214;SDS011;4642;51.364;6.788;2023-04-15T03:02:50;7.17;;;4.40;;
9214;SDS011;4642;51.364;6.788;2023-04-15T03:05:20;9.17;;;4.67;;
9214;SDS011;4642;51.364;6.788;2023-04-15T03:07:49;6.03;;;4.10;;
9214;SDS011;4642;51.364;6.788;2023-04-15T03:10:15;5.53;;;3.97;;
9214;SDS011;4642;51.364;6.788;2023-04-15T03:12:41;8.40;;;4.50;;
9214;SDS011;4642;51.364;6.788;2023-04-15T03:15:07;7.83;;;4.20;;
9214;SDS011;4642;51.364;6.788;2023-04-15T03:17:33;8.40;;;4.07;;
9214;SDS011;4642;51.364;6.788;2023-04-15T03:20:00;8.67;;;4.23;;
9214;SDS011;4642;51.364;6.788;2023-04-15T03:22:27;4.40;;;3.87;;
9214;SDS011;4642;51.364;6.788;2023-04-15T03:24:53;9.07;;;4.77;;
9214;SDS011;4642;51.364;6.788;2023-04-15T03:27:18;8.17;;;5.00;;
9214;SDS011;4642;51.364;6.788;2023-04-15T03:29:44;10.33;;;5.20;;
9214;SDS011;4642;51.364;6.788;2023-04-15T03:32:10;10.07;;;5.27;;
9214;SDS011;4642;51.364;6.788;2023-04-15T03:34:36;10.00;;;5.97;;
9214;SDS011;4642;51.364;6.788;2023-04-15T03:37:02;8.43;;;5.47;;
9214;SDS011;4642;51.364;6.788;2023-04-15T03:39:27;8.93;;;5.97;;
9214;SDS011;4642;51.364;6.788;2023-04-15T03:41:53;12.80;;;5.80;;
9214;SDS011;4642;51.364;6.788;2023-04-15T03:44:18;9.70;;;5.83;;
9214;SDS011;4642;51.364;6.788;2023-04-15T03:46:44;8.63;;;5.90;;
9214;SDS011;4642;51.364;6.788;2023-04-15T03:49:09;11.43;;;7.17;;
9214;SDS011;4642;51.364;6.788;2023-04-15T03:51:35;10.60;;;6.30;;
9214;SDS011;4642;51.364;6.788;2023-04-15T03:54:00;12.57;;;7.27;;
9214;SDS011;4642;51.364;6.788;2023-04-15T03:56:26;11.87;;;7.73;;
9214;SDS011;4642;51.364;6.788;2023-04-15T03:58:52;11.40;;;7.43;;
9214;SDS011;4642;51.364;6.788;2023-04-15T04:01:17;9.90;;;7.93;;
9214;SDS011;4642;51.364;6.788;2023-04-15T04:03:43;12.67;;;7.67;;
9214;SDS011;4642;51.364;6.788;2023-04-15T04:06:08;12.30;;;7.70;;
9214;SDS011;4642;51.364;6.788;2023-04-15T04:08:36;12.30;;;7.97;;
9214;SDS011;4642;51.364;6.788;2023-04-15T04:11:02;12.77;;;8.10;;
9214;SDS011;4642;51.364;6.788;2023-04-15T04:13:28;12.87;;;7.87;;
9214;SDS011;4642;51.364;6.788;2023-04-15T04:15:53;10.47;;;7.47;;
9214;SDS011;4642;51.364;6.788;2023-04-15T04:18:19;13.03;;;8.70;;
9214;SDS011;4642;51.364;6.788;2023-04-15T04:20:44;16.23;;;7.77;;
9214;SDS011;4642;51.364;6.788;2023-04-15T04:23:10;10.27;;;8.57;;
9214;SDS011;4642;51.364;6.788;2023-04-15T04:25:36;15.10;;;9.13;;
9214;SDS011;4642;51.364;6.788;2023-04-15T04:28:01;13.93;;;9.47;;
9214;SDS011;4642;51.364;6.788;2023-04-15T04:30:27;12.63;;;9.00;;
9214;SDS011;4642;51.364;6.788;2023-04-15T04:32:53;16.60;;;10.03;;
9214;SDS011;4642;51.364;6.788;2023-04-15T04:35:19;11.70;;;9.03;;
9214;SDS011;4642;51.364;6.788;2023-04-15T04:37:44;10.80;;;8.60;;
9214;SDS011;4642;51.364;6.788;2023-04-15T04:40:10;18.10;;;9.10;;
9214;SDS011;4642;51.364;6.788;2023-04-15T04:42:36;11.77;;;9.23;;
9214;SDS011;4642;51.364;6.788;2023-04-15T04:45:02;12.50;;;8.87;;
9214;SDS011;4642;51.364;6.788;2023-04-15T04:47:27;15.33;;;9.43;;
9214;SDS011;4642;51.364;6.788;2023-04-15T04:49:54;12.10;;;9.20;;
9214;SDS011;4642;51.364;6.788;2023-04-15T04:52:19;15.37;;;9.70;;
9214;SDS011;4642;51.364;6.788;2023-04-15T04:54:45;12.83;;;9.00;;
9214;SDS011;4642;51.364;6.788;2023-04-15T04:57:11;16.33;;;10.10;;
9214;SDS011;4642;51.364;6.788;2023-04-15T04:59:37;13.23;;;9.40;;
9214;SDS011;4642;51.364;6.788;2023-04-15T05:02:03;12.30;;;9.47;;
9214;SDS011;4642;51.364;6.788;2023-04-15T05:04:29;12.87;;;9.60;;
9214;SDS011;4642;51.364;6.788;2023-04-15T05:06:56;11.33;;;9.50;;
9214;SDS011;4642;51.364;6.788;2023-04-15T05:09:22;14.47;;;9.27;;
9214;SDS011;4642;51.364;6.788;2023-04-15T05:11:47;12.70;;;9.50;;
9214;SDS011;4642;51.364;6.788;2023-04-15T05:14:13;14.27;;;10.23;;
9214;SDS011;4642;51.364;6.788;2023-04-15T05:16:38;18.23;;;9.93;;
9214;SDS011;4642;51.364;6.788;2023-04-15T05:19:04;15.57;;;9.70;;
9214;SDS011;4642;51.364;6.788;2023-04-15T05:21:30;18.97;;;9.67;;
9214;SDS011;4642;51.364;6.788;2023-04-15T05:23:56;14.77;;;9.70;;
9214;SDS011;4642;51.364;6.788;2023-04-15T05:26:21;12.90;;;9.57;;
9214;SDS011;4642;51.364;6.788;2023-04-15T05:28:48;14.90;;;9.30;;
9214;SDS011;4642;51.364;6.788;2023-04-15T05:31:14;12.00;;;8.90;;
9214;SDS011;4642;51.364;6.788;2023-04-15T05:33:40;15.73;;;9.53;;
9214;SDS011;4642;51.364;6.788;2023-04-15T05:36:05;13.70;;;9.43;;
9214;SDS011;4642;51.364;6.788;2023-04-15T05:38:31;12.93;;;9.30;;
9214;SDS011;4642;51.364;6.788;2023-04-15T05:40:57;13.70;;;10.17;;
9214;SDS011;4642;51.364;6.788;2023-04-15T05:43:22;14.07;;;9.63;;
9214;SDS011;4642;51.364;6.788;2023-04-15T05:45:48;14.17;;;10.30;;
9214;SDS011;4642;51.364;6.788;2023-04-15T05:48:13;14.27;;;9.93;;
9214;SDS011;4642;51.364;6.788;2023-04-15T05:50:42;16.63;;;10.70;;
9214;SDS011;4642;51.364;6.788;2023-04-15T05:53:08;12.87;;;9.37;;
9214;SDS011;4642;51.364;6.788;2023-04-15T05:55:33;15.10;;;10.23;;
9214;SDS011;4642;51.364;6.788;2023-04-15T05:57:59;14.40;;;9.43;;
9214;SDS011;4642;51.364;6.788;2023-04-15T06:00:25;14.07;;;9.90;;
9214;SDS011;4642;51.364;6.788;2023-04-15T06:02:51;11.93;;;9.23;;
9214;SDS011;4642;51.364;6.788;2023-04-15T06:05:17;16.13;;;10.13;;
9214;SDS011;4642;51.364;6.788;2023-04-15T06:07:43;12.93;;;9.60;;
9214;SDS011;4642;51.364;6.788;2023-04-15T06:10:08;12.60;;;9.70;;
9214;SDS011;4642;51.364;6.788;2023-04-15T06:12:34;14.83;;;9.73;;
9214;SDS011;4642;51.364;6.788;2023-04-15T06:15:00;15.20;;;9.83;;
9214;SDS011;4642;51.364;6.788;2023-04-15T06:17:25;14.27;;;10.47;;
9214;SDS011;4642;51.364;6.788;2023-04-15T06:19:51;14.33;;;10.10;;
9214;SDS011;4642;51.364;6.788;2023-04-15T06:22:20;15.17;;;10.17;;
9214;SDS011;4642;51.364;6.788;2023-04-15T06:24:47;14.93;;;10.57;;
9214;SDS011;4642;51.364;6.788;2023-04-15T06:27:14;14.83;;;10.23;;
9214;SDS011;4642;51.364;6.788;2023-04-15T06:29:40;14.07;;;10.80;;
9214;SDS011;4642;51.364;6.788;2023-04-15T06:32:05;15.53;;;10.87;;
9214;SDS011;4642;51.364;6.788;2023-04-15T06:34:31;16.90;;;11.63;;
9214;SDS011;4642;51.364;6.788;2023-04-15T06:36:57;15.53;;;10.60;;
9214;SDS011;4642;51.364;6.788;2023-04-15T06:39:23;14.43;;;10.83;;
9214;SDS011;4642;51.364;6.788;2023-04-15T06:41:48;19.03;;;11.77;;
9214;SDS011;4642;51.364;6.788;2023-04-15T06:44:14;16.10;;;11.73;;
9214;SDS011;4642;51.364;6.788;2023-04-15T06:46:40;14.80;;;10.23;;
9214;SDS011;4642;51.364;6.788;2023-04-15T06:49:05;16.23;;;10.60;;
9214;SDS011;4642;51.364;6.788;2023-04-15T06:51:31;12.83;;;9.83;;
9214;SDS011;4642;51.364;6.788;2023-04-15T06:53:58;14.00;;;10.77;;
9214;SDS011;4642;51.364;6.788;2023-04-15T06:56:23;16.57;;;10.67;;
9214;SDS011;4642;51.364;6.788;2023-04-15T06:58:49;15.37;;;10.53;;
9214;SDS011;4642;51.364;6.788;2023-04-15T07:01:15;15.40;;;10.77;;
9214;SDS011;4642;51.364;6.788;2023-04-15T07:03:40;14.43;;;9.37;;
9214;SDS011;4642;51.364;6.788;2023-04-15T07:06:06;12.37;;;9.50;;
9214;SDS011;4642;51.364;6.788;2023-04-15T07:08:33;15.63;;;9.77;;
9214;SDS011;4642;51.364;6.788;2023-04-15T07:10:59;12.17;;;8.80;;
9214;SDS011;4642;51.364;6.788;2023-04-15T07:13:25;12.10;;;8.67;;
9214;SDS011;4642;51.364;6.788;2023-04-15T07:15:51;10.07;;;8.00;;
9214;SDS011;4642;51.364;6.788;2023-04-15T07:18:16;11.67;;;8.37;;
9214;SDS011;4642;51.364;6.788;2023-04-15T07:20:42;12.60;;;8.73;;
9214;SDS011;4642;51.364;6.788;2023-04-15T07:23:08;10.13;;;7.77;;
9214;SDS011;4642;51.364;6.788;2023-04-15T07:25:33;9.93;;;7.73;;
9214;SDS011;4642;51.364;6.788;2023-04-15T07:27:59;8.67;;;6.20;;
9214;SDS011;4642;51.364;6.788;2023-04-15T07:30:25;8.83;;;5.87;;
9214;SDS011;4642;51.364;6.788;2023-04-15T07:32:50;9.27;;;5.80;;
9214;SDS011;4642;51.364;6.788;2023-04-15T07:35:16;8.03;;;5.43;;
9214;SDS011;4642;51.364;6.788;2023-04-15T07:37:42;9.97;;;5.10;;
9214;SDS011;4642;51.364;6.788;2023-04-15T07:40:07;9.27;;;5.50;;
9214;SDS011;4642;51.364;6.788;2023-04-15T07:42:34;6.03;;;5.00;;
9214;SDS011;4642;51.364;6.788;2023-04-15T07:44:59;7.93;;;5.73;;
9214;SDS011;4642;51.364;6.788;2023-04-15T07:47:25;7.50;;;5.10;;
9214;SDS011;4642;51.364;6.788;2023-04-15T07:49:51;9.83;;;5.03;;
9214;SDS011;4642;51.364;6.788;2023-04-15T07:52:17;5.77;;;4.23;;
9214;SDS011;4642;51.364;6.788;2023-04-15T07:54:44;7.30;;;4.63;;
9214;SDS011;4642;51.364;6.788;2023-04-15T07:57:10;4.60;;;3.83;;
9214;SDS011;4642;51.364;6.788;2023-04-15T07:59:35;7.50;;;4.47;;
9214;SDS011;4642;51.364;6.788;2023-04-15T08:02:01;5.50;;;3.90;;
9214;SDS011;4642;51.364;6.788;2023-04-15T08:04:27;6.70;;;4.70;;
9214;SDS011;4642;51.364;6.788;2023-04-15T08:06:52;5.17;;;4.47;;
9214;SDS011;4642;51.364;6.788;2023-04-15T08:09:18;6.00;;;4.53;;
9214;SDS011;4642;51.364;6.788;2023-04-15T08:11:47;7.60;;;4.50;;
9214;SDS011;4642;51.364;6.788;2023-04-15T08:14:13;7.90;;;3.77;;
9214;SDS011;4642;51.364;6.788;2023-04-15T08:16:39;5.27;;;3.77;;
9214;SDS011;4642;51.364;6.788;2023-04-15T08:19:04;7.47;;;4.30;;
9214;SDS011;4642;51.364;6.788;2023-04-15T08:21:30;4.73;;;4.20;;
9214;SDS011;4642;51.364;6.788;2023-04-15T08:23:55;4.57;;;4.10;;
9214;SDS011;4642;51.364;6.788;2023-04-15T08:26:21;5.80;;;4.50;;
9214;SDS011;4642;51.364;6.788;2023-04-15T08:28:47;6.80;;;4.50;;
9214;SDS011;4642;51.364;6.788;2023-04-15T08:31:13;6.20;;;4.00;;
9214;SDS011;4642;51.364;6.788;2023-04-15T08:33:40;7.50;;;4.30;;
9214;SDS011;4642;51.364;6.788;2023-04-15T08:36:06;9.43;;;4.30;;
9214;SDS011;4642;51.364;6.788;2023-04-15T08:38:32;4.70;;;3.87;;
9214;SDS011;4642;51.364;6.788;2023-04-15T08:40:57;5.77;;;4.83;;
9214;SDS011;4642;51.364;6.788;2023-04-15T08:43:28;4.60;;;3.33;;
9214;SDS011;4642;51.364;6.788;2023-04-15T08:45:59;4.73;;;3.67;;
9214;SDS011;4642;51.364;6.788;2023-04-15T08:48:29;4.20;;;2.93;;
9214;SDS011;4642;51.364;6.788;2023-04-15T08:50:57;3.67;;;2.47;;
9214;SDS011;4642;51.364;6.788;2023-04-15T08:53:23;3.27;;;2.70;;
9214;SDS011;4642;51.364;6.788;2023-04-15T08:55:50;5.10;;;2.07;;
9214;SDS011;4642;51.364;6.788;2023-04-15T08:58:16;2.87;;;2.20;;
9214;SDS011;4642;51.364;6.788;2023-04-15T09:00:43;3.20;;;2.43;;
9214;SDS011;4642;51.364;6.788;2023-04-15T09:03:09;2.63;;;2.30;;
9214;SDS011;4642;51.364;6.788;2023-04-15T09:05:36;2.67;;;2.37;;
9214;SDS011;4642;51.364;6.788;2023-04-15T09:08:02;4.00;;;2.90;;
9214;SDS011;4642;51.364;6.788;2023-04-15T09:10:29;3.27;;;2.30;;
9214;SDS011;4642;51.364;6.788;2023-04-15T09:12:56;3.37;;;2.50;;
9214;SDS011;4642;51.364;6.788;2023-04-15T09:15:25;3.47;;;2.40;;
9214;SDS011;4642;51.364;6.788;2023-04-15T09:17:54;3.33;;;2.40;;
9214;SDS011;4642;51.364;6.788;2023-04-15T09:20:20;3.17;;;2.33;;
9214;SDS011;4642;51.364;6.788;2023-04-15T09:22:47;2.93;;;2.57;;
9214;SDS011;4642;51.364;6.788;2023-04-15T09:27:49;3.40;;;2.23;;
9214;SDS011;4642;51.364;6.788;2023-04-15T09:30:15;3.27;;;1.97;;
9214;SDS011;4642;51.364;6.788;2023-04-15T09:32:57;2.93;;;2.53;;
9214;SDS011;4642;51.364;6.788;2023-04-15T09:35:24;5.27;;;2.70;;
9214;SDS011;4642;51.364;6.788;2023-04-15T09:37:51;3.03;;;2.50;;
9214;SDS011;4642;51.364;6.788;2023-04-15T09:40:29;7.50;;;2.50;;
9214;SDS011;4642;51.364;6.788;2023-04-15T09:42:56;5.23;;;3.20;;
9214;SDS011;4642;51.364;6.788;2023-04-15T09:45:22;4.17;;;2.83;;
9214;SDS011;4642;51.364;6.788;2023-04-15T09:47:48;3.60;;;3.03;;
9214;SDS011;4642;51.364;6.788;2023-04-15T09:50:17;3.50;;;2.90;;
9214;SDS011;4642;51.364;6.788;2023-04-15T09:52:43;4.17;;;2.73;;
9214;SDS011;4642;51.364;6.788;2023-04-15T09:55:09;3.17;;;2.60;;
9214;SDS011;4642;51.364;6.788;2023-04-15T09:57:35;3.27;;;2.60;;
9214;SDS011;4642;51.364;6.788;2023-04-15T10:00:02;2.30;;;2.10;;
9214;SDS011;4642;51.364;6.788;2023-04-15T10:02:30;2.70;;;2.17;;
9214;SDS011;4642;51.364;6.788;2023-04-15T10:04:56;6.33;;;2.30;;
9214;SDS011;4642;51.364;6.788;2023-04-15T10:07:22;4.40;;;2.60;;
9214;SDS011;4642;51.364;6.788;2023-04-15T10:09:49;3.00;;;2.57;;
9214;SDS011;4642;51.364;6.788;2023-04-15T10:12:16;2.63;;;2.20;;
9214;SDS011;4642;51.364;6.788;2023-04-15T10:14:42;2.63;;;2.40;;
9214;SDS011;4642;51.364;6.788;2023-04-15T10:17:10;2.47;;;2.27;;
9214;SDS011;4642;51.364;6.788;2023-04-15T10:19:37;2.53;;;2.27;;
9214;SDS011;4642;51.364;6.788;2023-04-15T10:22:02;4.07;;;2.53;;
9214;SDS011;4642;51.364;6.788;2023-04-15T10:24:31;3.03;;;2.20;;
9214;SDS011;4642;51.364;6.788;2023-04-15T10:26:58;2.97;;;2.60;;
9214;SDS011;4642;51.364;6.788;2023-04-15T10:29:24;3.13;;;2.60;;
9214;SDS011;4642;51.364;6.788;2023-04-15T10:31:53;3.43;;;2.60;;
9214;SDS011;4642;51.364;6.788;2023-04-15T10:34:20;6.27;;;2.83;;
9214;SDS011;4642;51.364;6.788;2023-04-15T10:36:47;3.13;;;2.77;;
9214;SDS011;4642;51.364;6.788;2023-04-15T10:44:37;3.20;;;2.70;;
9214;SDS011;4642;51.364;6.788;2023-04-15T10:47:10;4.10;;;3.03;;
9214;SDS011;4642;51.364;6.788;2023-04-15T10:49:44;3.17;;;2.80;;
9214;SDS011;4642;51.364;6.788;2023-04-15T10:52:11;3.60;;;2.67;;
9214;SDS011;4642;51.364;6.788;2023-04-15T10:54:38;3.20;;;2.77;;
9214;SDS011;4642;51.364;6.788;2023-04-15T11:02:22;3.33;;;2.60;;
9214;SDS011;4642;51.364;6.788;2023-04-15T11:05:13;5.00;;;3.33;;
9214;SDS011;4642;51.364;6.788;2023-04-15T11:07:40;3.83;;;3.13;;
9214;SDS011;4642;51.364;6.788;2023-04-15T11:12:41;3.80;;;3.40;;
9214;SDS011;4642;51.364;6.788;2023-04-15T11:18:15;3.47;;;3.13;;
9214;SDS011;4642;51.364;6.788;2023-04-15T11:20:41;3.60;;;2.90;;
9214;SDS011;4642;51.364;6.788;2023-04-15T11:23:11;2.80;;;2.47;;
9214;SDS011;4642;51.364;6.788;2023-04-15T11:25:38;3.00;;;2.70;;
9214;SDS011;4642;51.364;6.788;2023-04-15T11:28:04;3.20;;;2.60;;
9214;SDS011;4642;51.364;6.788;2023-04-15T11:30:31;4.57;;;3.20;;
9214;SDS011;4642;51.364;6.788;2023-04-15T11:33:05;3.53;;;2.70;;
9214;SDS011;4642;51.364;6.788;2023-04-15T11:35:39;5.07;;;3.03;;
9214;SDS011;4642;51.364;6.788;2023-04-15T11:38:10;3.70;;;2.63;;
9214;SDS011;4642;51.364;6.788;2023-04-15T11:40:37;3.97;;;3.00;;
9214;SDS011;4642;51.364;6.788;2023-04-15T11:45:47;3.17;;;2.67;;
9214;SDS011;4642;51.364;6.788;2023-04-15T11:48:24;3.73;;;2.73;;
9214;SDS011;4642;51.364;6.788;2023-04-15T11:50:55;4.17;;;2.80;;
9214;SDS011;4642;51.364;6.788;2023-04-15T11:53:41;3.40;;;2.40;;
9214;SDS011;4642;51.364;6.788;2023-04-15T11:56:09;2.93;;;2.63;;
9214;SDS011;4642;51.364;6.788;2023-04-15T11:58:36;4.50;;;2.53;;
9214;SDS011;4642;51.364;6.788;2023-04-15T12:01:02;2.93;;;2.50;;
9214;SDS011;4642;51.364;6.788;2023-04-15T12:03:29;2.73;;;2.30;;
9214;SDS011;4642;51.364;6.788;2023-04-15T12:11:32;2.70;;;2.27;;
9214;SDS011;4642;51.364;6.788;2023-04-15T12:14:05;3.63;;;2.60;;
9214;SDS011;4642;51.364;6.788;2023-04-15T12:16:35;4.13;;;2.57;;
9214;SDS011;4642;51.364;6.788;2023-04-15T12:19:04;2.60;;;2.13;;
9214;SDS011;4642;51.364;6.788;2023-04-15T12:21:34;2.60;;;2.20;;
9214;SDS011;4642;51.364;6.788;2023-04-15T12:24:03;3.30;;;2.03;;
9214;SDS011;4642;51.364;6.788;2023-04-15T12:26:33;2.27;;;2.00;;
9214;SDS011;4642;51.364;6.788;2023-04-15T12:29:07;3.67;;;2.67;;
9214;SDS011;4642;51.364;6.788;2023-04-15T12:31:33;5.30;;;2.87;;
9214;SDS011;4642;51.364;6.788;2023-04-15T12:34:00;5.40;;;3.10;;
9214;SDS011;4642;51.364;6.788;2023-04-15T12:36:27;3.30;;;2.67;;
9214;SDS011;4642;51.364;6.788;2023-04-15T12:38:55;2.90;;;2.40;;
9214;SDS011;4642;51.364;6.788;2023-04-15T12:41:21;3.17;;;2.50;;
9214;SDS011;4642;51.364;6.788;2023-04-15T12:43:48;2.83;;;2.27;;
9214;SDS011;4642;51.364;6.788;2023-04-15T12:46:14;3.20;;;2.33;;
9214;SDS011;4642;51.364;6.788;2023-04-15T12:48:40;3.20;;;2.40;;
9214;SDS011;4642;51.364;6.788;2023-04-15T12:51:05;3.67;;;2.80;;
9214;SDS011;4642;51.364;6.788;2023-04-15T12:53:31;4.70;;;2.97;;
9214;SDS011;4642;51.364;6.788;2023-04-15T12:55:56;4.23;;;3.20;;
9214;SDS011;4642;51.364;6.788;2023-04-15T12:58:22;3.40;;;2.70;;
9214;SDS011;4642;51.364;6.788;2023-04-15T13:00:47;3.83;;;2.77;;
9214;SDS011;4642;51.364;6.788;2023-04-15T13:03:13;2.73;;;2.33;;
9214;SDS011;4642;51.364;6.788;2023-04-15T13:05:40;2.77;;;2.20;;
9214;SDS011;4642;51.364;6.788;2023-04-15T13:08:06;2.27;;;1.90;;
9214;SDS011;4642;51.364;6.788;2023-04-15T13:10:31;2.63;;;2.00;;
9214;SDS011;4642;51.364;6.788;2023-04-15T13:12:57;2.37;;;2.00;;
9214;SDS011;4642;51.364;6.788;2023-04-15T13:15:23;3.27;;;2.00;;
9214;SDS011;4642;51.364;6.788;2023-04-15T13:17:49;3.53;;;2.60;;
9214;SDS011;4642;51.364;6.788;2023-04-15T13:20:15;7.63;;;2.60;;
9214;SDS011;4642;51.364;6.788;2023-04-15T13:22:41;4.37;;;2.30;;
9214;SDS011;4642;51.364;6.788;2023-04-15T13:25:07;4.00;;;2.67;;
9214;SDS011;4642;51.364;6.788;2023-04-15T13:27:33;3.70;;;2.70;;
9214;SDS011;4642;51.364;6.788;2023-04-15T13:29:58;3.67;;;3.00;;
9214;SDS011;4642;51.364;6.788;2023-04-15T13:32:24;4.90;;;2.40;;
9214;SDS011;4642;51.364;6.788;2023-04-15T13:34:50;3.13;;;2.53;;
9214;SDS011;4642;51.364;6.788;2023-04-15T13:37:16;4.23;;;3.20;;
9214;SDS011;4642;51.364;6.788;2023-04-15T13:39:41;4.67;;;2.60;;
9214;SDS011;4642;51.364;6.788;2023-04-15T13:42:07;4.13;;;2.87;;
9214;SDS011;4642;51.364;6.788;2023-04-15T13:44:33;6.20;;;3.23;;
9214;SDS011;4642;51.364;6.788;2023-04-15T13:46:59;5.30;;;3.00;;
9214;SDS011;4642;51.364;6.788;2023-04-15T13:49:25;2.67;;;2.30;;
9214;SDS011;4642;51.364;6.788;2023-04-15T13:51:50;3.43;;;2.13;;
9214;SDS011;4642;51.364;6.788;2023-04-15T13:54:16;3.00;;;2.53;;
9214;SDS011;4642;51.364;6.788;2023-04-15T13:56:42;8.87;;;2.40;;
9214;SDS011;4642;51.364;6.788;2023-04-15T13:59:07;3.67;;;2.37;;
9214;SDS011;4642;51.364;6.788;2023-04-15T14:01:33;3.33;;;2.17;;
9214;SDS011;4642;51.364;6.788;2023-04-15T14:03:59;3.43;;;2.20;;
9214;SDS011;4642;51.364;6.788;2023-04-15T14:06:25;3.03;;;2.07;;
9214;SDS011;4642;51.364;6.788;2023-04-15T14:08:51;2.23;;;1.80;;
9214;SDS011;4642;51.364;6.788;2023-04-15T14:11:17;2.87;;;2.30;;
9214;SDS011;4642;51.364;6.788;2023-04-15T14:13:43;3.57;;;2.40;;
9214;SDS011;4642;51.364;6.788;2023-04-15T14:16:08;4.03;;;2.20;;
9214;SDS011;4642;51.364;6.788;2023-04-15T14:18:34;3.63;;;1.90;;
9214;SDS011;4642;51.364;6.788;2023-04-15T14:21:01;2.97;;;2.33;;
9214;SDS011;4642;51.364;6.788;2023-04-15T14:23:27;2.83;;;2.13;;
9214;SDS011;4642;51.364;6.788;2023-04-15T14:25:53;2.93;;;1.90;;
9214;SDS011;4642;51.364;6.788;2023-04-15T14:28:18;2.00;;;1.70;;
9214;SDS011;4642;51.364;6.788;2023-04-15T14:30:44;3.13;;;2.60;;
9214;SDS011;4642;51.364;6.788;2023-04-15T14:33:10;3.60;;;2.47;;
9214;SDS011;4642;51.364;6.788;2023-04-15T14:35:35;2.70;;;1.97;;
9214;SDS011;4642;51.364;6.788;2023-04-15T14:38:01;2.53;;;2.00;;
9214;SDS011;4642;51.364;6.788;2023-04-15T14:40:27;2.53;;;1.87;;
9214;SDS011;4642;51.364;6.788;2023-04-15T14:42:53;2.67;;;1.33;;
9214;SDS011;4642;51.364;6.788;2023-04-15T14:45:18;2.23;;;1.77;;
9214;SDS011;4642;51.364;6.788;2023-04-15T14:47:44;4.37;;;1.87;;
9214;SDS011;4642;51.364;6.788;2023-04-15T14:50:09;3.10;;;1.70;;
9214;SDS011;4642;51.364;6.788;2023-04-15T14:52:35;2.40;;;1.90;;
9214;SDS011;4642;51.364;6.788;2023-04-15T14:55:04;3.13;;;2.20;;
9214;SDS011;4642;51.364;6.788;2023-04-15T14:57:31;4.80;;;2.93;;
9214;SDS011;4642;51.364;6.788;2023-04-15T14:59:56;2.73;;;2.43;;
9214;SDS011;4642;51.364;6.788;2023-04-15T15:02:23;3.20;;;2.33;;
9214;SDS011;4642;51.364;6.788;2023-04-15T15:04:48;4.50;;;1.90;;
9214;SDS011;4642;51.364;6.788;2023-04-15T15:07:14;2.87;;;1.90;;
9214;SDS011;4642;51.364;6.788;2023-04-15T15:09:40;2.67;;;1.77;;
9214;SDS011;4642;51.364;6.788;2023-04-15T15:12:06;3.37;;;2.30;;
9214;SDS011;4642;51.364;6.788;2023-04-15T15:14:31;3.13;;;2.13;;
9214;SDS011;4642;51.364;6.788;2023-04-15T15:16:58;3.13;;;1.83;;
9214;SDS011;4642;51.364;6.788;2023-04-15T15:19:23;2.93;;;1.87;;
9214;SDS011;4642;51.364;6.788;2023-04-15T15:21:49;3.00;;;1.90;;
9214;SDS011;4642;51.364;6.788;2023-04-15T15:24:15;1.93;;;1.73;;
9214;SDS011;4642;51.364;6.788;2023-04-15T15:26:40;2.27;;;1.50;;
9214;SDS011;4642;51.364;6.788;2023-04-15T15:29:06;3.23;;;2.00;;
9214;SDS011;4642;51.364;6.788;2023-04-15T15:31:33;2.70;;;1.83;;
9214;SDS011;4642;51.364;6.788;2023-04-15T15:33:59;3.27;;;1.90;;